Elk Mills, Maryland
Current Conditions -  °F | °C
As of 4:51 PM on Thursday 23 Oct 2014 (Local Time) from KILG Reporting Station
Overcast Overcast  
Wind Chill: 57°   Ceiling: 3500
Heat Index: 57°   Visibility: 10mi
Dew Point: 46°   Wind: 16mph
Humidity: 67%   Direction: 320°NW
Pressure: 29.8"   Gusts: 23mph
Location:  39.66°N, 75.83°W
Report Text: KILG 232051Z 32014G20KT 10SM BKN035 OVC044 14/08 A2980 RMK AO2 SLP091 T01390078 53002
Loading
Personal Weather Stations






























Interactive Weather Map
Tropical Storm Tracking
New forecast layout! Learn more

10-Day Weather Forecast

Advertisements
Track Severe Weather on mobile